sensor_id;sensor_type;location;lat;lon;timestamp;pressure;altitude;pressure_sealevel;temperature
66403;BMP180;53212;52.112;5.144;2024-03-07T00:00:34;102605.20;;;5.20
66403;BMP180;53212;52.112;5.144;2024-03-07T00:03:01;102612.20;;;5.28
66403;BMP180;53212;52.112;5.144;2024-03-07T00:05:27;102610.60;;;5.20
66403;BMP180;53212;52.112;5.144;2024-03-07T00:07:56;102605.80;;;5.12
66403;BMP180;53212;52.112;5.144;2024-03-07T00:10:21;102602.80;;;5.10
66403;BMP180;53212;52.112;5.144;2024-03-07T00:12:48;102599.80;;;5.10
66403;BMP180;53212;52.112;5.144;2024-03-07T00:15:14;102601.80;;;5.10
66403;BMP180;53212;52.112;5.144;2024-03-07T00:17:41;102606.60;;;5.10
66403;BMP180;53212;52.112;5.144;2024-03-07T00:20:09;102606.60;;;5.00
66403;BMP180;53212;52.112;5.144;2024-03-07T00:22:42;102609.20;;;5.00
66403;BMP180;53212;52.112;5.144;2024-03-07T00:25:08;102607.40;;;5.00
66403;BMP180;53212;52.112;5.144;2024-03-07T00:27:37;102605.40;;;5.00
66403;BMP180;53212;52.112;5.144;2024-03-07T00:30:06;102605.20;;;5.00
66403;BMP180;53212;52.112;5.144;2024-03-07T00:32:34;102609.80;;;4.90
66403;BMP180;53212;52.112;5.144;2024-03-07T00:35:06;102607.80;;;4.90
66403;BMP180;53212;52.112;5.144;2024-03-07T00:37:34;102609.80;;;4.90
66403;BMP180;53212;52.112;5.144;2024-03-07T00:40:00;102609.40;;;4.80
66403;BMP180;53212;52.112;5.144;2024-03-07T00:42:26;102606.40;;;4.80
66403;BMP180;53212;52.112;5.144;2024-03-07T00:44:52;102605.20;;;4.80
66403;BMP180;53212;52.112;5.144;2024-03-07T00:47:18;102610.00;;;4.80
66403;BMP180;53212;52.112;5.144;2024-03-07T00:49:44;102607.40;;;4.74
66403;BMP180;53212;52.112;5.144;2024-03-07T00:52:14;102604.40;;;4.70
66403;BMP180;53212;52.112;5.144;2024-03-07T00:54:41;102602.00;;;4.70
66403;BMP180;53212;52.112;5.144;2024-03-07T00:57:07;102596.80;;;4.60
66403;BMP180;53212;52.112;5.144;2024-03-07T00:59:33;102599.20;;;4.60
66403;BMP180;53212;52.112;5.144;2024-03-07T01:01:58;102600.40;;;4.60
66403;BMP180;53212;52.112;5.144;2024-03-07T01:04:25;102597.00;;;4.60
66403;BMP180;53212;52.112;5.144;2024-03-07T01:06:59;102597.00;;;4.50
66403;BMP180;53212;52.112;5.144;2024-03-07T01:09:28;102593.00;;;4.50
66403;BMP180;53212;52.112;5.144;2024-03-07T01:11:54;102592.00;;;4.48
66403;BMP180;53212;52.112;5.144;2024-03-07T01:14:24;102595.60;;;4.50
66403;BMP180;53212;52.112;5.144;2024-03-07T01:16:50;102593.80;;;4.40
66403;BMP180;53212;52.112;5.144;2024-03-07T01:19:15;102592.40;;;4.40
66403;BMP180;53212;52.112;5.144;2024-03-07T01:21:41;102595.00;;;4.40
66403;BMP180;53212;52.112;5.144;2024-03-07T01:24:06;102592.20;;;4.40
66403;BMP180;53212;52.112;5.144;2024-03-07T01:26:32;102590.20;;;4.38
66403;BMP180;53212;52.112;5.144;2024-03-07T01:29:01;102589.80;;;4.30
66403;BMP180;53212;52.112;5.144;2024-03-07T01:31:26;102586.40;;;4.30
66403;BMP180;53212;52.112;5.144;2024-03-07T01:33:52;102587.00;;;4.30
66403;BMP180;53212;52.112;5.144;2024-03-07T01:36:19;102585.60;;;4.30
66403;BMP180;53212;52.112;5.144;2024-03-07T01:38:46;102588.60;;;4.30
66403;BMP180;53212;52.112;5.144;2024-03-07T01:41:12;102584.80;;;4.20
66403;BMP180;53212;52.112;5.144;2024-03-07T01:43:37;102582.00;;;4.18
66403;BMP180;53212;52.112;5.144;2024-03-07T01:46:03;102583.60;;;4.20
66403;BMP180;53212;52.112;5.144;2024-03-07T01:48:29;102582.00;;;4.10
66403;BMP180;53212;52.112;5.144;2024-03-07T01:50:58;102586.20;;;4.10
66403;BMP180;53212;52.112;5.144;2024-03-07T01:53:25;102578.60;;;4.06
66403;BMP180;53212;52.112;5.144;2024-03-07T01:55:51;102585.20;;;4.00
66403;BMP180;53212;52.112;5.144;2024-03-07T01:58:20;102578.20;;;4.00
66403;BMP180;53212;52.112;5.144;2024-03-07T02:00:46;102580.60;;;3.90
66403;BMP180;53212;52.112;5.144;2024-03-07T02:03:13;102579.40;;;3.90
66403;BMP180;53212;52.112;5.144;2024-03-07T02:05:40;102579.20;;;3.90
66403;BMP180;53212;52.112;5.144;2024-03-07T02:08:06;102572.40;;;3.90
66403;BMP180;53212;52.112;5.144;2024-03-07T02:10:32;102570.00;;;3.90
66403;BMP180;53212;52.112;5.144;2024-03-07T02:12:57;102569.80;;;3.90
66403;BMP180;53212;52.112;5.144;2024-03-07T02:15:23;102564.00;;;3.84
66403;BMP180;53212;52.112;5.144;2024-03-07T02:17:48;102562.20;;;3.84
66403;BMP180;53212;52.112;5.144;2024-03-07T02:20:14;102563.00;;;3.90
66403;BMP180;53212;52.112;5.144;2024-03-07T02:22:41;102562.00;;;3.90
66403;BMP180;53212;52.112;5.144;2024-03-07T02:25:09;102563.80;;;3.90
66403;BMP180;53212;52.112;5.144;2024-03-07T02:27:41;102560.40;;;3.90
66403;BMP180;53212;52.112;5.144;2024-03-07T02:30:07;102559.20;;;3.90
66403;BMP180;53212;52.112;5.144;2024-03-07T02:32:37;102563.80;;;3.90
66403;BMP180;53212;52.112;5.144;2024-03-07T02:35:04;102571.20;;;4.00
66403;BMP180;53212;52.112;5.144;2024-03-07T02:37:31;102571.00;;;4.10
66403;BMP180;53212;52.112;5.144;2024-03-07T02:39:56;102565.80;;;4.20
66403;BMP180;53212;52.112;5.144;2024-03-07T02:42:22;102569.40;;;4.20
66403;BMP180;53212;52.112;5.144;2024-03-07T02:44:47;102567.40;;;4.20
66403;BMP180;53212;52.112;5.144;2024-03-07T02:47:13;102566.20;;;4.30
66403;BMP180;53212;52.112;5.144;2024-03-07T02:49:38;102559.00;;;4.30
66403;BMP180;53212;52.112;5.144;2024-03-07T02:52:04;102557.00;;;4.40
66403;BMP180;53212;52.112;5.144;2024-03-07T02:54:33;102557.00;;;4.40
66403;BMP180;53212;52.112;5.144;2024-03-07T02:56:59;102553.40;;;4.50
66403;BMP180;53212;52.112;5.144;2024-03-07T02:59:24;102553.20;;;4.60
66403;BMP180;53212;52.112;5.144;2024-03-07T03:01:50;102549.40;;;4.60
66403;BMP180;53212;52.112;5.144;2024-03-07T03:04:16;102545.60;;;4.60
66403;BMP180;53212;52.112;5.144;2024-03-07T03:06:43;102544.60;;;4.62
66403;BMP180;53212;52.112;5.144;2024-03-07T03:09:08;102541.00;;;4.70
66403;BMP180;53212;52.112;5.144;2024-03-07T03:11:39;102539.40;;;4.70
66403;BMP180;53212;52.112;5.144;2024-03-07T03:14:05;102533.80;;;4.70
66403;BMP180;53212;52.112;5.144;2024-03-07T03:16:30;102532.20;;;4.70
66403;BMP180;53212;52.112;5.144;2024-03-07T03:18:56;102531.80;;;4.70
66403;BMP180;53212;52.112;5.144;2024-03-07T03:21:23;102527.60;;;4.70
66403;BMP180;53212;52.112;5.144;2024-03-07T03:23:49;102526.60;;;4.70
66403;BMP180;53212;52.112;5.144;2024-03-07T03:26:14;102530.00;;;4.64
66403;BMP180;53212;52.112;5.144;2024-03-07T03:28:41;102529.20;;;4.60
66403;BMP180;53212;52.112;5.144;2024-03-07T03:31:08;102528.80;;;4.50
66403;BMP180;53212;52.112;5.144;2024-03-07T03:33:34;102525.20;;;4.50
66403;BMP180;53212;52.112;5.144;2024-03-07T03:36:00;102513.20;;;4.38
66403;BMP180;53212;52.112;5.144;2024-03-07T03:38:26;102518.60;;;4.30
66403;BMP180;53212;52.112;5.144;2024-03-07T03:40:52;102514.00;;;4.30
66403;BMP180;53212;52.112;5.144;2024-03-07T03:43:17;102511.20;;;4.20
66403;BMP180;53212;52.112;5.144;2024-03-07T03:45:44;102512.00;;;4.20
66403;BMP180;53212;52.112;5.144;2024-03-07T03:48:10;102511.00;;;4.10
66403;BMP180;53212;52.112;5.144;2024-03-07T03:50:36;102507.80;;;4.10
66403;BMP180;53212;52.112;5.144;2024-03-07T03:53:01;102509.80;;;4.00
66403;BMP180;53212;52.112;5.144;2024-03-07T03:55:27;102501.40;;;4.00
66403;BMP180;53212;52.112;5.144;2024-03-07T03:57:53;102503.60;;;4.00
66403;BMP180;53212;52.112;5.144;2024-03-07T04:00:18;102503.40;;;3.96
66403;BMP180;53212;52.112;5.144;2024-03-07T04:02:46;102505.00;;;3.90
66403;BMP180;53212;52.112;5.144;2024-03-07T04:05:20;102496.20;;;3.90
66403;BMP180;53212;52.112;5.144;2024-03-07T04:07:46;102498.40;;;3.80
66403;BMP180;53212;52.112;5.144;2024-03-07T04:10:14;102495.60;;;3.80
66403;BMP180;53212;52.112;5.144;2024-03-07T04:12:41;102496.20;;;3.70
66403;BMP180;53212;52.112;5.144;2024-03-07T04:15:09;102499.60;;;3.70
66403;BMP180;53212;52.112;5.144;2024-03-07T04:17:35;102500.80;;;3.68
66403;BMP180;53212;52.112;5.144;2024-03-07T04:20:06;102502.00;;;3.60
66403;BMP180;53212;52.112;5.144;2024-03-07T04:22:35;102504.00;;;3.60
66403;BMP180;53212;52.112;5.144;2024-03-07T04:25:05;102500.00;;;3.60
66403;BMP180;53212;52.112;5.144;2024-03-07T04:27:35;102502.80;;;3.60
66403;BMP180;53212;52.112;5.144;2024-03-07T04:30:07;102501.40;;;3.54
66403;BMP180;53212;52.112;5.144;2024-03-07T04:32:33;102499.80;;;3.50
66403;BMP180;53212;52.112;5.144;2024-03-07T04:35:03;102498.60;;;3.50
66403;BMP180;53212;52.112;5.144;2024-03-07T04:37:29;102502.20;;;3.42
66403;BMP180;53212;52.112;5.144;2024-03-07T04:39:55;102503.40;;;3.46
66403;BMP180;53212;52.112;5.144;2024-03-07T04:42:20;102504.60;;;3.48
66403;BMP180;53212;52.112;5.144;2024-03-07T04:44:46;102502.00;;;3.40
66403;BMP180;53212;52.112;5.144;2024-03-07T04:47:12;102504.00;;;3.40
66403;BMP180;53212;52.112;5.144;2024-03-07T04:49:37;102506.80;;;3.40
66403;BMP180;53212;52.112;5.144;2024-03-07T04:52:03;102505.40;;;3.34
66403;BMP180;53212;52.112;5.144;2024-03-07T04:54:30;102506.40;;;3.30
66403;BMP180;53212;52.112;5.144;2024-03-07T04:56:57;102503.20;;;3.30
66403;BMP180;53212;52.112;5.144;2024-03-07T04:59:23;102501.00;;;3.30
66403;BMP180;53212;52.112;5.144;2024-03-07T05:01:50;102498.20;;;3.24
66403;BMP180;53212;52.112;5.144;2024-03-07T05:04:16;102495.00;;;3.20
66403;BMP180;53212;52.112;5.144;2024-03-07T05:06:42;102496.40;;;3.20
66403;BMP180;53212;52.112;5.144;2024-03-07T05:09:10;102495.20;;;3.20
66403;BMP180;53212;52.112;5.144;2024-03-07T05:11:49;102494.80;;;3.20
66403;BMP180;53212;52.112;5.144;2024-03-07T05:14:18;102491.40;;;3.20
66403;BMP180;53212;52.112;5.144;2024-03-07T05:16:44;102489.60;;;3.20
66403;BMP180;53212;52.112;5.144;2024-03-07T05:19:09;102493.20;;;3.20
66403;BMP180;53212;52.112;5.144;2024-03-07T05:21:35;102491.00;;;3.10
66403;BMP180;53212;52.112;5.144;2024-03-07T05:24:07;102494.20;;;3.10
66403;BMP180;53212;52.112;5.144;2024-03-07T05:26:34;102493.80;;;3.10
66403;BMP180;53212;52.112;5.144;2024-03-07T05:29:06;102494.00;;;3.00
66403;BMP180;53212;52.112;5.144;2024-03-07T05:31:39;102496.20;;;3.00
66403;BMP180;53212;52.112;5.144;2024-03-07T05:34:13;102495.80;;;3.00
66403;BMP180;53212;52.112;5.144;2024-03-07T05:36:39;102499.20;;;3.00
66403;BMP180;53212;52.112;5.144;2024-03-07T05:39:13;102498.80;;;3.00
66403;BMP180;53212;52.112;5.144;2024-03-07T05:41:41;102499.80;;;2.96
66403;BMP180;53212;52.112;5.144;2024-03-07T05:44:07;102496.20;;;2.90
66403;BMP180;53212;52.112;5.144;2024-03-07T05:46:42;102493.20;;;2.90
66403;BMP180;53212;52.112;5.144;2024-03-07T05:49:15;102492.60;;;2.90
66403;BMP180;53212;52.112;5.144;2024-03-07T05:51:42;102489.40;;;2.86
66403;BMP180;53212;52.112;5.144;2024-03-07T05:54:11;102491.60;;;2.80
66403;BMP180;53212;52.112;5.144;2024-03-07T05:56:39;102492.20;;;2.80
66403;BMP180;53212;52.112;5.144;2024-03-07T05:59:06;102491.20;;;2.80
66403;BMP180;53212;52.112;5.144;2024-03-07T06:01:36;102488.60;;;2.80
66403;BMP180;53212;52.112;5.144;2024-03-07T06:04:04;102491.40;;;2.80
66403;BMP180;53212;52.112;5.144;2024-03-07T06:06:32;102495.40;;;2.70
66403;BMP180;53212;52.112;5.144;2024-03-07T06:09:08;102495.20;;;2.70
66403;BMP180;53212;52.112;5.144;2024-03-07T06:11:38;102493.40;;;2.70
66403;BMP180;53212;52.112;5.144;2024-03-07T06:14:08;102490.60;;;2.70
66403;BMP180;53212;52.112;5.144;2024-03-07T06:16:38;102494.80;;;2.72
66403;BMP180;53212;52.112;5.144;2024-03-07T06:19:05;102492.40;;;2.70
66403;BMP180;53212;52.112;5.144;2024-03-07T06:21:37;102497.20;;;2.70
66403;BMP180;53212;52.112;5.144;2024-03-07T06:24:05;102500.00;;;2.70
66403;BMP180;53212;52.112;5.144;2024-03-07T06:26:34;102503.00;;;2.70
66403;BMP180;53212;52.112;5.144;2024-03-07T06:29:06;102498.80;;;2.70
66403;BMP180;53212;52.112;5.144;2024-03-07T06:31:33;102505.60;;;2.70
66403;BMP180;53212;52.112;5.144;2024-03-07T06:34:00;102507.60;;;2.70
66403;BMP180;53212;52.112;5.144;2024-03-07T06:36:25;102507.00;;;2.70
66403;BMP180;53212;52.112;5.144;2024-03-07T06:38:51;102502.20;;;2.70
66403;BMP180;53212;52.112;5.144;2024-03-07T06:41:17;102508.20;;;2.70
66403;BMP180;53212;52.112;5.144;2024-03-07T06:43:45;102504.80;;;2.80
66403;BMP180;53212;52.112;5.144;2024-03-07T06:46:11;102506.40;;;2.80
66403;BMP180;53212;52.112;5.144;2024-03-07T06:48:41;102499.60;;;2.80
66403;BMP180;53212;52.112;5.144;2024-03-07T06:51:07;102497.40;;;2.80
66403;BMP180;53212;52.112;5.144;2024-03-07T06:53:32;102502.60;;;2.88
66403;BMP180;53212;52.112;5.144;2024-03-07T06:55:59;102504.60;;;2.90
66403;BMP180;53212;52.112;5.144;2024-03-07T06:58:25;102504.80;;;2.90
66403;BMP180;53212;52.112;5.144;2024-03-07T07:00:52;102505.80;;;2.98
66403;BMP180;53212;52.112;5.144;2024-03-07T07:03:20;102500.80;;;3.00
66403;BMP180;53212;52.112;5.144;2024-03-07T07:05:48;102493.80;;;3.00
66403;BMP180;53212;52.112;5.144;2024-03-07T07:08:13;102497.40;;;3.00
66403;BMP180;53212;52.112;5.144;2024-03-07T07:10:40;102494.80;;;3.10
66403;BMP180;53212;52.112;5.144;2024-03-07T07:13:06;102500.00;;;3.16
66403;BMP180;53212;52.112;5.144;2024-03-07T07:15:32;102497.00;;;3.20
66403;BMP180;53212;52.112;5.144;2024-03-07T07:17:58;102496.40;;;3.20
66403;BMP180;53212;52.112;5.144;2024-03-07T07:20:24;102493.40;;;3.20
66403;BMP180;53212;52.112;5.144;2024-03-07T07:22:50;102490.80;;;3.30
66403;BMP180;53212;52.112;5.144;2024-03-07T07:25:16;102491.40;;;3.30
66403;BMP180;53212;52.112;5.144;2024-03-07T07:27:47;102493.80;;;3.30
66403;BMP180;53212;52.112;5.144;2024-03-07T07:30:16;102495.80;;;3.40
66403;BMP180;53212;52.112;5.144;2024-03-07T07:32:43;102491.60;;;3.40
66403;BMP180;53212;52.112;5.144;2024-03-07T07:35:10;102493.80;;;3.50
66403;BMP180;53212;52.112;5.144;2024-03-07T07:37:41;102490.20;;;3.50
66403;BMP180;53212;52.112;5.144;2024-03-07T07:40:10;102493.20;;;3.60
66403;BMP180;53212;52.112;5.144;2024-03-07T07:42:41;102494.00;;;3.60
66403;BMP180;53212;52.112;5.144;2024-03-07T07:45:11;102490.00;;;3.60
66403;BMP180;53212;52.112;5.144;2024-03-07T07:47:44;102489.80;;;3.70
66403;BMP180;53212;52.112;5.144;2024-03-07T07:50:15;102491.40;;;3.70
66403;BMP180;53212;52.112;5.144;2024-03-07T07:52:53;102485.80;;;3.80
66403;BMP180;53212;52.112;5.144;2024-03-07T07:55:37;102483.20;;;3.80
66403;BMP180;53212;52.112;5.144;2024-03-07T07:58:03;102482.60;;;3.90
66403;BMP180;53212;52.112;5.144;2024-03-07T08:00:29;102485.20;;;3.90
66403;BMP180;53212;52.112;5.144;2024-03-07T08:03:04;102488.20;;;4.00
66403;BMP180;53212;52.112;5.144;2024-03-07T08:05:36;102489.00;;;4.10
66403;BMP180;53212;52.112;5.144;2024-03-07T08:08:09;102487.00;;;4.10
66403;BMP180;53212;52.112;5.144;2024-03-07T08:10:38;102483.40;;;4.10
66403;BMP180;53212;52.112;5.144;2024-03-07T08:13:05;102477.60;;;4.20
66403;BMP180;53212;52.112;5.144;2024-03-07T08:15:36;102475.80;;;4.20
66403;BMP180;53212;52.112;5.144;2024-03-07T08:18:02;102474.20;;;4.30
66403;BMP180;53212;52.112;5.144;2024-03-07T08:20:34;102478.40;;;4.32
66403;BMP180;53212;52.112;5.144;2024-03-07T08:23:00;102480.80;;;4.40
66403;BMP180;53212;52.112;5.144;2024-03-07T08:25:28;102480.60;;;4.48
66403;BMP180;53212;52.112;5.144;2024-03-07T08:27:56;102481.20;;;4.50
66403;BMP180;53212;52.112;5.144;2024-03-07T08:30:23;102479.80;;;4.56
66403;BMP180;53212;52.112;5.144;2024-03-07T08:32:51;102473.80;;;4.60
66403;BMP180;53212;52.112;5.144;2024-03-07T08:35:18;102472.80;;;4.70
66403;BMP180;53212;52.112;5.144;2024-03-07T08:37:52;102481.80;;;4.80
66403;BMP180;53212;52.112;5.144;2024-03-07T08:40:23;102478.00;;;4.82
66403;BMP180;53212;52.112;5.144;2024-03-07T08:42:52;102485.20;;;4.90
66403;BMP180;53212;52.112;5.144;2024-03-07T08:45:19;102484.80;;;5.00
66403;BMP180;53212;52.112;5.144;2024-03-07T08:47:47;102484.40;;;5.10
66403;BMP180;53212;52.112;5.144;2024-03-07T08:50:14;102479.00;;;5.20
66403;BMP180;53212;52.112;5.144;2024-03-07T08:52:40;102477.60;;;5.30
66403;BMP180;53212;52.112;5.144;2024-03-07T08:55:07;102478.40;;;5.32
66403;BMP180;53212;52.112;5.144;2024-03-07T08:57:38;102478.00;;;5.40
66403;BMP180;53212;52.112;5.144;2024-03-07T09:00:06;102476.00;;;5.50
66403;BMP180;53212;52.112;5.144;2024-03-07T09:02:38;102478.40;;;5.60
66403;BMP180;53212;52.112;5.144;2024-03-07T09:05:05;102478.20;;;5.70
66403;BMP180;53212;52.112;5.144;2024-03-07T09:07:32;102470.00;;;5.70
66403;BMP180;53212;52.112;5.144;2024-03-07T09:09:57;102470.80;;;5.80
66403;BMP180;53212;52.112;5.144;2024-03-07T09:12:24;102470.00;;;5.86
66403;BMP180;53212;52.112;5.144;2024-03-07T09:14:51;102462.00;;;5.90
66403;BMP180;53212;52.112;5.144;2024-03-07T09:17:23;102464.80;;;6.00
66403;BMP180;53212;52.112;5.144;2024-03-07T09:19:49;102463.00;;;6.00
66403;BMP180;53212;52.112;5.144;2024-03-07T09:22:15;102463.80;;;6.10
66403;BMP180;53212;52.112;5.144;2024-03-07T09:24:40;102461.80;;;6.20
66403;BMP180;53212;52.112;5.144;2024-03-07T09:27:06;102462.80;;;6.30
66403;BMP180;53212;52.112;5.144;2024-03-07T09:29:32;102455.80;;;6.30
66403;BMP180;53212;52.112;5.144;2024-03-07T09:31:57;102454.00;;;6.40
66403;BMP180;53212;52.112;5.144;2024-03-07T09:34:24;102448.60;;;6.44
66403;BMP180;53212;52.112;5.144;2024-03-07T09:36:51;102447.40;;;6.50
66403;BMP180;53212;52.112;5.144;2024-03-07T09:39:18;102450.60;;;6.60
66403;BMP180;53212;52.112;5.144;2024-03-07T09:41:46;102443.40;;;6.68
66403;BMP180;53212;52.112;5.144;2024-03-07T09:44:15;102440.20;;;6.70
66403;BMP180;53212;52.112;5.144;2024-03-07T09:46:47;102432.60;;;6.80
66403;BMP180;53212;52.112;5.144;2024-03-07T09:49:14;102433.60;;;6.80
66403;BMP180;53212;52.112;5.144;2024-03-07T09:51:40;102428.00;;;6.80
66403;BMP180;53212;52.112;5.144;2024-03-07T09:54:08;102430.80;;;6.90
66403;BMP180;53212;52.112;5.144;2024-03-07T09:56:36;102428.40;;;6.90
66403;BMP180;53212;52.112;5.144;2024-03-07T09:59:04;102425.40;;;7.00
66403;BMP180;53212;52.112;5.144;2024-03-07T10:01:34;102426.60;;;7.10
66403;BMP180;53212;52.112;5.144;2024-03-07T10:04:01;102426.00;;;7.12
66403;BMP180;53212;52.112;5.144;2024-03-07T10:06:36;102424.20;;;7.20
66403;BMP180;53212;52.112;5.144;2024-03-07T10:09:02;102422.20;;;7.22
66403;BMP180;53212;52.112;5.144;2024-03-07T10:11:29;102415.60;;;7.28
66403;BMP180;53212;52.112;5.144;2024-03-07T10:13:55;102419.80;;;7.30
66403;BMP180;53212;52.112;5.144;2024-03-07T10:16:21;102417.00;;;7.40
66403;BMP180;53212;52.112;5.144;2024-03-07T10:18:46;102419.60;;;7.40
66403;BMP180;53212;52.112;5.144;2024-03-07T10:21:18;102418.40;;;7.50
66403;BMP180;53212;52.112;5.144;2024-03-07T10:23:44;102410.00;;;7.54
66403;BMP180;53212;52.112;5.144;2024-03-07T10:26:10;102415.60;;;7.60
66403;BMP180;53212;52.112;5.144;2024-03-07T10:28:38;102414.00;;;7.60
66403;BMP180;53212;52.112;5.144;2024-03-07T10:31:04;102409.20;;;7.60
66403;BMP180;53212;52.112;5.144;2024-03-07T10:33:39;102408.80;;;7.60
66403;BMP180;53212;52.112;5.144;2024-03-07T10:36:05;102401.60;;;7.70
66403;BMP180;53212;52.112;5.144;2024-03-07T10:38:37;102399.80;;;7.70
66403;BMP180;53212;52.112;5.144;2024-03-07T10:41:05;102397.00;;;7.70
66403;BMP180;53212;52.112;5.144;2024-03-07T10:43:36;102392.00;;;7.80
66403;BMP180;53212;52.112;5.144;2024-03-07T10:46:05;102389.60;;;7.80
66403;BMP180;53212;52.112;5.144;2024-03-07T10:48:38;102392.20;;;7.90
66403;BMP180;53212;52.112;5.144;2024-03-07T10:51:21;102391.40;;;8.00
66403;BMP180;53212;52.112;5.144;2024-03-07T10:54:15;102385.60;;;8.00
66403;BMP180;53212;52.112;5.144;2024-03-07T10:59:19;102385.80;;;8.10
66403;BMP180;53212;52.112;5.144;2024-03-07T11:02:17;102375.40;;;8.10
66403;BMP180;53212;52.112;5.144;2024-03-07T11:04:47;102377.60;;;8.12
66403;BMP180;53212;52.112;5.144;2024-03-07T11:07:15;102374.40;;;8.20
66403;BMP180;53212;52.112;5.144;2024-03-07T11:09:43;102369.00;;;8.30
66403;BMP180;53212;52.112;5.144;2024-03-07T11:12:09;102369.00;;;8.40
66403;BMP180;53212;52.112;5.144;2024-03-07T11:14:37;102364.20;;;8.50
66403;BMP180;53212;52.112;5.144;2024-03-07T11:17:03;102360.80;;;8.60
66403;BMP180;53212;52.112;5.144;2024-03-07T11:19:32;102359.00;;;8.80
66403;BMP180;53212;52.112;5.144;2024-03-07T11:22:02;102359.20;;;8.90
66403;BMP180;53212;52.112;5.144;2024-03-07T11:24:39;102358.40;;;9.10
66403;BMP180;53212;52.112;5.144;2024-03-07T11:27:09;102352.20;;;9.34
66403;BMP180;53212;52.112;5.144;2024-03-07T11:32:12;102345.00;;;9.50
66403;BMP180;53212;52.112;5.144;2024-03-07T11:34:42;102351.00;;;9.60
66403;BMP180;53212;52.112;5.144;2024-03-07T11:37:20;102346.20;;;9.70
66403;BMP180;53212;52.112;5.144;2024-03-07T11:40:02;102343.20;;;10.00
66403;BMP180;53212;52.112;5.144;2024-03-07T11:42:33;102343.20;;;10.20
66403;BMP180;53212;52.112;5.144;2024-03-07T11:45:02;102340.20;;;10.30
66403;BMP180;53212;52.112;5.144;2024-03-07T11:47:37;102337.60;;;10.30
66403;BMP180;53212;52.112;5.144;2024-03-07T11:50:07;102338.40;;;10.20
66403;BMP180;53212;52.112;5.144;2024-03-07T11:52:46;102324.00;;;10.10
66403;BMP180;53212;52.112;5.144;2024-03-07T11:55:12;102329.40;;;9.86
66403;BMP180;53212;52.112;5.144;2024-03-07T11:57:38;102323.20;;;9.70
66403;BMP180;53212;52.112;5.144;2024-03-07T12:00:07;102322.40;;;9.60
66403;BMP180;53212;52.112;5.144;2024-03-07T12:02:37;102320.20;;;9.40
66403;BMP180;53212;52.112;5.144;2024-03-07T12:05:07;102314.80;;;9.40
66403;BMP180;53212;52.112;5.144;2024-03-07T12:07:33;102319.00;;;9.54
66403;BMP180;53212;52.112;5.144;2024-03-07T12:10:01;102318.00;;;9.80
66403;BMP180;53212;52.112;5.144;2024-03-07T12:12:29;102309.00;;;9.90
66403;BMP180;53212;52.112;5.144;2024-03-07T12:14:55;102308.00;;;9.90
66403;BMP180;53212;52.112;5.144;2024-03-07T12:17:22;102302.60;;;9.90
66403;BMP180;53212;52.112;5.144;2024-03-07T12:19:49;102302.00;;;9.80
66403;BMP180;53212;52.112;5.144;2024-03-07T12:22:21;102297.00;;;9.60
66403;BMP180;53212;52.112;5.144;2024-03-07T12:25:03;102279.40;;;9.40
66403;BMP180;53212;52.112;5.144;2024-03-07T12:27:33;102277.20;;;9.22
66403;BMP180;53212;52.112;5.144;2024-03-07T12:29:59;102274.00;;;9.10
66403;BMP180;53212;52.112;5.144;2024-03-07T12:32:27;102267.40;;;9.10
66403;BMP180;53212;52.112;5.144;2024-03-07T12:34:52;102270.80;;;9.00
66403;BMP180;53212;52.112;5.144;2024-03-07T12:37:18;102262.40;;;9.10
66403;BMP180;53212;52.112;5.144;2024-03-07T12:39:49;102258.40;;;9.20
66403;BMP180;53212;52.112;5.144;2024-03-07T12:42:24;102250.20;;;9.32
66403;BMP180;53212;52.112;5.144;2024-03-07T12:44:50;102248.20;;;9.40
66403;BMP180;53212;52.112;5.144;2024-03-07T12:47:17;102246.80;;;9.44
66403;BMP180;53212;52.112;5.144;2024-03-07T12:49:46;102242.20;;;9.50
66403;BMP180;53212;52.112;5.144;2024-03-07T12:52:12;102242.60;;;9.54
66403;BMP180;53212;52.112;5.144;2024-03-07T12:54:43;102236.00;;;9.60
66403;BMP180;53212;52.112;5.144;2024-03-07T12:57:12;102237.20;;;9.70
66403;BMP180;53212;52.112;5.144;2024-03-07T12:59:38;102234.40;;;9.64
66403;BMP180;53212;52.112;5.144;2024-03-07T13:02:10;102234.20;;;9.64
66403;BMP180;53212;52.112;5.144;2024-03-07T13:04:37;102230.60;;;9.70
66403;BMP180;53212;52.112;5.144;2024-03-07T13:07:06;102226.60;;;9.90
66403;BMP180;53212;52.112;5.144;2024-03-07T13:09:35;102229.00;;;10.10
66403;BMP180;53212;52.112;5.144;2024-03-07T13:12:03;102227.00;;;10.10
66403;BMP180;53212;52.112;5.144;2024-03-07T13:14:35;102224.80;;;10.20
66403;BMP180;53212;52.112;5.144;2024-03-07T13:17:04;102221.80;;;10.30
66403;BMP180;53212;52.112;5.144;2024-03-07T13:19:32;102224.20;;;10.30
66403;BMP180;53212;52.112;5.144;2024-03-07T13:21:58;102222.40;;;10.30
66403;BMP180;53212;52.112;5.144;2024-03-07T13:24:27;102224.80;;;10.26
66403;BMP180;53212;52.112;5.144;2024-03-07T13:26:53;102214.00;;;10.30
66403;BMP180;53212;52.112;5.144;2024-03-07T13:29:19;102215.80;;;10.30
66403;BMP180;53212;52.112;5.144;2024-03-07T13:31:51;102211.20;;;10.30
66403;BMP180;53212;52.112;5.144;2024-03-07T13:34:17;102205.80;;;10.40
66403;BMP180;53212;52.112;5.144;2024-03-07T13:36:44;102196.20;;;10.50
66403;BMP180;53212;52.112;5.144;2024-03-07T13:39:12;102200.20;;;10.70
66403;BMP180;53212;52.112;5.144;2024-03-07T13:41:43;102199.20;;;10.70
66403;BMP180;53212;52.112;5.144;2024-03-07T13:44:10;102201.80;;;10.70
66403;BMP180;53212;52.112;5.144;2024-03-07T13:46:36;102197.40;;;10.70
66403;BMP180;53212;52.112;5.144;2024-03-07T13:49:03;102191.00;;;10.58
66403;BMP180;53212;52.112;5.144;2024-03-07T13:51:42;102192.60;;;10.60
66403;BMP180;53212;52.112;5.144;2024-03-07T13:54:19;102187.60;;;10.60
66403;BMP180;53212;52.112;5.144;2024-03-07T14:12:25;102171.40;;;10.50
66403;BMP180;53212;52.112;5.144;2024-03-07T14:15:33;102174.80;;;10.60
66403;BMP180;53212;52.112;5.144;2024-03-07T14:30:52;102170.20;;;10.60
66403;BMP180;53212;52.112;5.144;2024-03-07T14:33:35;102156.20;;;10.70
66403;BMP180;53212;52.112;5.144;2024-03-07T14:36:13;102167.00;;;10.60
66403;BMP180;53212;52.112;5.144;2024-03-07T14:38:53;102169.00;;;10.40
66403;BMP180;53212;52.112;5.144;2024-03-07T14:41:51;102164.60;;;10.30
66403;BMP180;53212;52.112;5.144;2024-03-07T14:44:18;102166.20;;;10.10
66403;BMP180;53212;52.112;5.144;2024-03-07T14:46:48;102160.60;;;10.00